Time;durP1;ratioP1;P1;durP2;ratioP2;P2;SDS_P1;SDS_P2;PMS_P1;PMS_P2;Temp;Humidity;BMP_temperature;BMP_pressure;BME280_temperature;BME280_humidity;BME280_pressure;Samples;Min_cycle;Max_cycle;Signal;HPM_P1;HPM_P2
2021/12/28 00:01:18;;;;;;;26.43;17.03;;;2.10;99.90;;;;;;4959435;28;20721;-95
2021/12/28 00:03:45;;;;;;;23.67;15.47;;;2.10;99.90;;;;;;4959149;28;20214;-95
2021/12/28 00:06:14;;;;;;;24.33;16.03;;;2.10;99.90;;;;;;4959025;28;20716;-95
2021/12/28 00:08:43;;;;;;;23.13;14.93;;;2.10;99.90;;;;;;4958674;28;20181;-96
2021/12/28 00:11:10;;;;;;;22.93;15.70;;;2.10;99.90;;;;;;4959018;28;20260;-95
2021/12/28 00:13:39;;;;;;;24.07;15.47;;;2.10;99.90;;;;;;4959275;28;20181;-95
2021/12/28 00:18:47;;;;;;;24.23;15.17;;;2.10;99.90;;;;;;4976880;28;20264;-96
2021/12/28 00:21:23;;;;;;;22.03;15.50;;;2.10;99.90;;;;;;4961212;28;20220;-95
2021/12/28 00:23:49;;;;;;;23.00;14.40;;;2.20;99.90;;;;;;4960454;28;20180;-96
2021/12/28 00:26:15;;;;;;;22.33;14.90;;;2.20;99.90;;;;;;4977582;28;20276;-96
2021/12/28 00:28:47;;;;;;;21.47;14.23;;;2.20;99.90;;;;;;4960350;28;20188;-96
2021/12/28 00:31:15;;;;;;;25.63;15.77;;;2.20;99.90;;;;;;4961884;28;20184;-96
2021/12/28 00:33:44;;;;;;;24.57;15.47;;;2.20;99.90;;;;;;4962095;28;20184;-94
2021/12/28 00:36:12;;;;;;;24.13;15.83;;;2.20;99.90;;;;;;4962446;28;20188;-94
2021/12/28 00:38:44;;;;;;;21.10;14.90;;;2.20;99.90;;;;;;4960799;28;20184;-96
2021/12/28 00:41:15;;;;;;;23.97;15.60;;;2.30;99.90;;;;;;4959469;28;20185;-96
2021/12/28 00:43:43;;;;;;;23.93;15.03;;;2.30;99.90;;;;;;4959315;28;20262;-96
2021/12/28 00:46:09;;;;;;;21.10;14.63;;;2.30;99.90;;;;;;4958799;28;20698;-96
2021/12/28 00:48:36;;;;;;;23.17;15.07;;;2.30;99.90;;;;;;4958452;28;20193;-96
2021/12/28 00:51:06;;;;;;;23.93;15.53;;;2.20;99.90;;;;;;4958767;28;20193;-96
2021/12/28 00:53:34;;;;;;;22.70;15.00;;;2.20;99.90;;;;;;4960976;28;20185;-95
2021/12/28 00:56:10;;;;;;;22.43;15.70;;;2.20;99.90;;;;;;4959921;28;20236;-96
2021/12/28 00:59:01;;;;;;;23.83;14.97;;;2.20;99.90;;;;;;4960341;28;20217;-95
2021/12/28 01:01:47;;;;;;;24.30;15.37;;;2.20;99.90;;;;;;4959215;28;20183;-95
2021/12/28 01:04:13;;;;;;;23.03;14.83;;;2.20;99.90;;;;;;4975438;28;20546;-95
2021/12/28 01:06:42;;;;;;;23.77;15.13;;;2.20;99.90;;;;;;4959306;28;20200;-95
2021/12/28 01:09:08;;;;;;;23.30;15.63;;;2.20;99.90;;;;;;4958608;28;20201;-95
2021/12/28 01:11:52;;;;;;;20.97;14.20;;;2.20;99.90;;;;;;4961783;28;20189;-96
2021/12/28 01:14:19;;;;;;;22.43;15.13;;;2.20;99.90;;;;;;4963046;28;20196;-96
2021/12/28 01:16:59;;;;;;;21.33;14.67;;;2.20;99.90;;;;;;4962706;28;20208;-94
2021/12/28 01:19:28;;;;;;;21.40;14.23;;;2.20;99.90;;;;;;4962033;28;20188;-95
2021/12/28 01:22:08;;;;;;;22.27;15.27;;;2.20;99.90;;;;;;4962302;28;20239;-95
2021/12/28 01:24:41;;;;;;;22.50;14.33;;;2.20;99.90;;;;;;4962102;28;20183;-95
2021/12/28 01:27:26;;;;;;;22.03;14.93;;;2.20;99.90;;;;;;4962965;28;20212;-94
2021/12/28 01:30:00;;;;;;;23.10;15.77;;;2.20;99.90;;;;;;4962782;28;20188;-96
2021/12/28 01:32:34;;;;;;;22.50;14.77;;;2.20;99.90;;;;;;4963562;28;20183;-96
2021/12/28 01:35:04;;;;;;;24.27;15.67;;;2.20;99.90;;;;;;4961898;28;20192;-96
2021/12/28 01:37:32;;;;;;;23.43;15.43;;;2.20;99.90;;;;;;4962796;28;20614;-95
2021/12/28 01:40:20;;;;;;;23.73;15.03;;;2.20;99.90;;;;;;4961820;28;20200;-96
2021/12/28 01:43:24;;;;;;;23.07;15.13;;;2.20;99.90;;;;;;4961343;28;20208;-95
2021/12/28 01:46:09;;;;;;;21.27;14.63;;;2.20;99.90;;;;;;4959574;28;20223;-96
2021/12/28 01:48:38;;;;;;;20.47;13.73;;;2.10;99.90;;;;;;4961947;28;20207;-95
2021/12/28 01:51:33;;;;;;;20.80;14.57;;;2.10;99.90;;;;;;4961524;28;20196;-95
2021/12/28 01:54:14;;;;;;;23.40;15.73;;;2.10;99.90;;;;;;4962267;28;20216;-95
2021/12/28 01:56:49;;;;;;;23.20;15.90;;;2.10;99.90;;;;;;4960932;28;20583;-96
2021/12/28 01:59:22;;;;;;;24.67;16.23;;;2.10;99.90;;;;;;4961853;28;20195;-95
2021/12/28 02:01:49;;;;;;;21.97;14.83;;;2.10;99.90;;;;;;4961066;28;20217;-96
2021/12/28 02:04:22;;;;;;;23.60;15.13;;;2.10;99.90;;;;;;4961188;28;20207;-95
2021/12/28 02:06:54;;;;;;;23.20;15.57;;;2.10;99.90;;;;;;4961905;28;20205;-95
2021/12/28 02:09:36;;;;;;;22.33;15.60;;;2.10;99.90;;;;;;4961975;28;20181;-95
2021/12/28 02:12:11;;;;;;;24.30;15.67;;;2.20;99.90;;;;;;4961513;28;20231;-95
2021/12/28 02:15:06;;;;;;;22.73;15.27;;;2.20;99.90;;;;;;4961593;28;20187;-96
2021/12/28 02:17:39;;;;;;;21.90;15.37;;;2.10;99.90;;;;;;4961819;28;20295;-96
2021/12/28 02:20:11;;;;;;;24.97;16.00;;;2.10;99.90;;;;;;4961219;28;20272;-96
2021/12/28 02:22:39;;;;;;;22.00;15.60;;;2.10;99.90;;;;;;4960253;28;20222;-95
2021/12/28 02:25:19;;;;;;;23.83;15.07;;;2.00;99.90;;;;;;4960492;28;20181;-95
2021/12/28 02:27:57;;;;;;;23.37;15.27;;;2.00;99.90;;;;;;4961209;28;20209;-95
2021/12/28 02:30:24;;;;;;;26.83;16.80;;;2.00;99.90;;;;;;4960776;28;20254;-95
2021/12/28 02:32:52;;;;;;;24.07;16.03;;;2.00;99.90;;;;;;4960667;28;20188;-95
2021/12/28 02:35:50;;;;;;;25.50;16.33;;;2.00;99.90;;;;;;4960324;28;20275;-95
2021/12/28 02:38:16;;;;;;;26.80;15.73;;;2.00;99.90;;;;;;4959915;28;20293;-94
2021/12/28 02:40:57;;;;;;;23.20;15.93;;;1.90;99.90;;;;;;4960502;28;20200;-95
2021/12/28 02:46:56;;;;;;;22.43;14.97;;;1.90;99.90;;;;;;4976975;28;20219;-95
2021/12/28 02:49:59;;;;;;;22.33;15.13;;;1.90;99.90;;;;;;4959852;28;20239;-95
2021/12/28 02:52:26;;;;;;;24.13;15.77;;;1.90;99.90;;;;;;4959762;28;20184;-94
2021/12/28 02:54:56;;;;;;;24.67;15.97;;;1.90;99.90;;;;;;4960030;28;20192;-96
2021/12/28 02:57:41;;;;;;;21.43;14.93;;;1.90;99.90;;;;;;4960089;28;20298;-95
2021/12/28 03:00:09;;;;;;;27.53;15.80;;;1.90;99.90;;;;;;4959269;28;20189;-94
2021/12/28 03:02:34;;;;;;;23.60;16.17;;;2.00;99.90;;;;;;4960156;28;20220;-95
2021/12/28 03:05:09;;;;;;;25.13;16.00;;;2.00;99.90;;;;;;4959420;28;20192;-95
2021/12/28 03:07:38;;;;;;;22.20;15.90;;;2.00;99.90;;;;;;4959619;28;20210;-96
2021/12/28 03:10:19;;;;;;;22.03;14.77;;;2.00;99.90;;;;;;4959940;28;20209;-95
2021/12/28 10:35:07;;;;;;;20.67;9.97;;;4.50;99.90;;;;;;4959731;28;20205;-95
2021/12/28 10:37:47;;;;;;;17.17;9.40;;;4.50;99.90;;;;;;4923682;29;20598;-95
2021/12/28 10:40:23;;;;;;;25.80;9.70;;;4.60;99.90;;;;;;4924459;29;20186;-95
2021/12/28 10:43:08;;;;;;;16.00;9.10;;;4.70;99.90;;;;;;4908420;29;20206;-92
2021/12/28 10:45:41;;;;;;;20.27;9.77;;;4.80;99.90;;;;;;4909478;29;20205;-94
2021/12/28 10:48:17;;;;;;;20.47;8.63;;;5.00;99.90;;;;;;4908433;29;20301;-95
2021/12/28 10:51:02;;;;;;;19.67;9.13;;;5.00;99.90;;;;;;4908602;29;20178;-96
2021/12/28 10:53:38;;;;;;;16.57;8.13;;;5.10;99.90;;;;;;4908492;29;20179;-94
2021/12/28 10:56:10;;;;;;;16.97;7.73;;;5.10;99.90;;;;;;4908273;29;20242;-95
2021/12/28 10:58:50;;;;;;;18.13;7.63;;;5.10;99.90;;;;;;4908291;29;20695;-96
2021/12/28 11:01:34;;;;;;;17.80;7.80;;;5.10;99.90;;;;;;4908717;29;20194;-96
2021/12/28 11:04:12;;;;;;;16.07;7.60;;;5.00;99.90;;;;;;4909083;29;20273;-95
2021/12/28 11:06:54;;;;;;;19.40;8.50;;;5.00;99.90;;;;;;4908932;29;20206;-95
2021/12/28 11:09:26;;;;;;;16.67;7.77;;;5.00;99.90;;;;;;4908607;29;20179;-96
2021/12/28 11:12:03;;;;;;;19.50;7.80;;;4.90;99.90;;;;;;4908381;29;20175;-95
2021/12/28 11:14:37;;;;;;;17.83;7.97;;;5.00;99.90;;;;;;4908028;29;20179;-94
2021/12/28 11:17:14;;;;;;;15.57;7.70;;;5.00;99.90;;;;;;4907332;29;20668;-95
2021/12/28 11:19:43;;;;;;;14.30;7.60;;;5.00;99.90;;;;;;4907380;29;20633;-93
2021/12/28 11:22:28;;;;;;;15.07;7.13;;;5.00;99.90;;;;;;4908315;29;20202;-96
2021/12/28 11:24:55;;;;;;;12.17;6.47;;;5.10;99.90;;;;;;4908132;29;20187;-95
2021/12/28 11:27:27;;;;;;;12.97;7.20;;;5.10;99.90;;;;;;4907844;29;20261;-95
2021/12/28 11:29:54;;;;;;;16.77;7.17;;;5.10;99.90;;;;;;4908045;29;20187;-96
2021/12/28 11:32:21;;;;;;;13.67;7.00;;;5.10;99.90;;;;;;4908123;29;20214;-95
2021/12/28 11:34:48;;;;;;;14.43;6.97;;;5.20;99.90;;;;;;4907758;29;20696;-95
2021/12/28 11:37:20;;;;;;;12.00;6.73;;;5.20;99.90;;;;;;4907430;29;20321;-94
2021/12/28 11:39:52;;;;;;;12.73;6.07;;;5.20;99.90;;;;;;4907806;29;20726;-95
2021/12/28 11:42:21;;;;;;;16.60;6.80;;;5.20;99.90;;;;;;4907746;29;20210;-95
2021/12/28 11:44:57;;;;;;;13.20;6.10;;;5.20;99.90;;;;;;4910296;29;20183;-96
2021/12/28 11:47:28;;;;;;;15.93;6.17;;;5.20;99.90;;;;;;4909047;29;20230;-95
2021/12/28 11:50:00;;;;;;;14.23;6.40;;;5.20;99.90;;;;;;4907641;29;20179;-96
2021/12/28 11:52:45;;;;;;;14.57;6.20;;;5.20;99.90;;;;;;4908483;29;20187;-95
2021/12/28 11:55:29;;;;;;;13.10;6.30;;;5.20;99.90;;;;;;4907291;29;20183;-96
2021/12/28 11:57:56;;;;;;;10.70;5.73;;;5.10;99.90;;;;;;4907659;29;20261;-96
2021/12/28 12:00:35;;;;;;;12.20;6.13;;;5.20;99.90;;;;;;4907374;29;20254;-94
2021/12/28 12:03:52;;;;;;;14.53;5.93;;;5.20;99.90;;;;;;4905119;29;20214;-95
2021/12/28 12:06:58;;;;;;;10.60;6.03;;;5.10;99.90;;;;;;4917959;29;20202;-93
2021/12/28 12:09:34;;;;;;;11.37;5.67;;;5.10;99.90;;;;;;4904686;29;20179;-95
2021/12/28 12:12:12;;;;;;;10.90;6.57;;;5.10;99.90;;;;;;4901930;29;20182;-95
2021/12/28 12:14:58;;;;;;;14.13;6.60;;;5.00;99.90;;;;;;4902233;29;20215;-95
2021/12/28 12:20:08;;;;;;;16.13;6.77;;;4.90;99.90;;;;;;4920495;29;20163;-95
2021/12/28 12:22:38;;;;;;;12.97;6.87;;;4.90;99.90;;;;;;4905589;29;20214;-96
2021/12/28 12:25:29;;;;;;;13.60;7.50;;;4.90;99.90;;;;;;4905802;29;20528;-96
2021/12/28 12:28:24;;;;;;;10.67;6.53;;;4.90;99.90;;;;;;4905903;29;20254;-95
2021/12/28 12:30:57;;;;;;;12.67;6.83;;;4.90;99.90;;;;;;4905232;29;20182;-96
2021/12/28 12:33:44;;;;;;;14.03;6.43;;;4.90;99.90;;;;;;4905118;29;20182;-96
2021/12/28 12:36:32;;;;;;;13.83;6.73;;;4.90;99.90;;;;;;4903483;29;20288;-96
2021/12/28 12:39:11;;;;;;;14.60;8.20;;;4.90;99.90;;;;;;4905905;29;20194;-95
2021/12/28 12:41:53;;;;;;;17.50;9.00;;;4.90;99.90;;;;;;4905919;29;20214;-96
2021/12/28 12:44:26;;;;;;;15.50;8.30;;;4.90;99.90;;;;;;4906281;29;20242;-95
2021/12/28 12:47:10;;;;;;;14.60;6.60;;;5.00;99.90;;;;;;4906034;29;20245;-95
2021/12/28 12:50:05;;;;;;;11.30;6.30;;;5.10;99.90;;;;;;4907053;29;21022;-95
2021/12/28 12:52:30;;;;;;;11.17;6.30;;;5.20;99.90;;;;;;4906902;29;20214;-95
2021/12/28 12:54:59;;;;;;;13.63;6.97;;;5.20;99.90;;;;;;4905935;29;20222;-95
2021/12/28 12:57:31;;;;;;;11.10;6.53;;;5.20;99.90;;;;;;4906834;29;20210;-95
2021/12/28 13:00:18;;;;;;;9.63;6.10;;;5.20;99.90;;;;;;4904658;29;20191;-95
2021/12/28 13:02:44;;;;;;;11.93;6.30;;;5.20;99.90;;;;;;4904950;29;20218;-96
2021/12/28 13:05:23;;;;;;;11.63;5.87;;;5.30;99.90;;;;;;4905074;29;20182;-96
2021/12/28 13:07:52;;;;;;;11.80;6.20;;;5.30;99.90;;;;;;4907847;29;20230;-95
2021/12/28 13:10:27;;;;;;;9.50;5.83;;;5.30;99.90;;;;;;4909616;29;20187;-95
2021/12/28 13:12:58;;;;;;;11.03;6.03;;;5.40;99.90;;;;;;4909990;29;20190;-95
2021/12/28 13:15:29;;;;;;;12.80;6.60;;;5.40;99.90;;;;;;4910194;29;20186;-96
2021/12/28 13:18:04;;;;;;;10.53;5.67;;;5.40;99.90;;;;;;4910059;29;20223;-95
2021/12/28 13:20:33;;;;;;;12.33;5.77;;;5.40;99.90;;;;;;4910428;29;20205;-95
2021/12/28 13:23:03;;;;;;;9.83;5.87;;;5.40;99.90;;;;;;4910121;29;20218;-95
2021/12/28 13:25:36;;;;;;;10.67;5.50;;;5.40;99.90;;;;;;4909927;29;20190;-94
2021/12/28 13:28:14;;;;;;;10.93;5.23;;;5.30;99.90;;;;;;4909630;29;20297;-95
2021/12/28 13:30:44;;;;;;;12.87;6.37;;;5.30;99.90;;;;;;4910090;29;20178;-95
2021/12/28 13:33:12;;;;;;;8.93;5.67;;;5.30;99.90;;;;;;4910389;29;20281;-95
2021/12/28 13:35:42;;;;;;;12.47;5.93;;;5.30;99.90;;;;;;4909561;29;20206;-95
2021/12/28 13:38:18;;;;;;;10.33;6.03;;;5.30;99.90;;;;;;4909955;29;20214;-95
2021/12/28 13:40:53;;;;;;;7.83;5.20;;;5.30;99.90;;;;;;4909228;29;20253;-94
2021/12/28 13:43:31;;;;;;;11.30;5.77;;;5.30;99.90;;;;;;4909598;29;20221;-96
2021/12/28 13:46:17;;;;;;;11.00;5.60;;;5.30;99.90;;;;;;4910007;29;20193;-95
2021/12/28 13:48:48;;;;;;;10.70;5.97;;;5.20;99.90;;;;;;4909542;29;20182;-96
2021/12/28 13:51:26;;;;;;;12.60;6.00;;;5.20;99.90;;;;;;4909360;29;20183;-95
2021/12/28 13:54:05;;;;;;;7.30;5.03;;;5.20;99.90;;;;;;4909078;29;20591;-96
2021/12/28 13:56:38;;;;;;;9.30;5.30;;;5.10;99.90;;;;;;4909085;29;20210;-95
2021/12/28 13:59:13;;;;;;;11.13;5.73;;;5.10;99.90;;;;;;4909666;29;20187;-95
2021/12/28 14:01:43;;;;;;;10.83;5.00;;;5.10;99.90;;;;;;4909771;29;20190;-96
2021/12/28 14:04:20;;;;;;;11.27;6.20;;;5.20;99.90;;;;;;4909060;29;20190;-95
2021/12/28 14:06:55;;;;;;;10.23;5.63;;;5.20;99.90;;;;;;4910470;29;20218;-96
2021/12/28 14:09:29;;;;;;;10.57;5.67;;;5.30;99.90;;;;;;4910152;29;20673;-96
2021/12/28 14:12:00;;;;;;;11.60;5.57;;;5.30;99.90;;;;;;4908602;29;20522;-96
2021/12/28 14:14:33;;;;;;;10.33;5.43;;;5.30;99.90;;;;;;4910350;29;20242;-96
2021/12/28 14:17:12;;;;;;;13.10;6.40;;;5.30;99.90;;;;;;4907910;29;20226;-94
2021/12/28 14:19:59;;;;;;;12.17;5.83;;;5.20;99.90;;;;;;4908033;29;20657;-96
2021/12/28 14:22:30;;;;;;;10.33;5.27;;;5.20;99.90;;;;;;4905493;29;20239;-95
2021/12/28 14:25:03;;;;;;;10.60;4.80;;;5.10;99.90;;;;;;4907571;29;20179;-94
2021/12/28 14:27:36;;;;;;;8.43;5.10;;;5.10;99.90;;;;;;4907450;29;20222;-96
2021/12/28 14:30:10;;;;;;;11.80;5.63;;;5.10;99.90;;;;;;4908667;29;20273;-95
2021/12/28 14:32:53;;;;;;;7.90;5.20;;;5.10;99.90;;;;;;4908772;29;20218;-94
2021/12/28 14:35:26;;;;;;;10.23;4.77;;;5.10;99.90;;;;;;4923804;29;20241;-95
2021/12/28 14:37:54;;;;;;;7.70;4.70;;;5.10;99.90;;;;;;4909019;29;20233;-94
2021/12/28 14:40:31;;;;;;;13.20;5.37;;;5.00;99.90;;;;;;4908525;29;20182;-95
2021/12/28 14:43:10;;;;;;;11.87;5.33;;;5.10;99.90;;;;;;4907361;29;20338;-94
2021/12/28 14:45:44;;;;;;;10.17;5.23;;;5.10;99.90;;;;;;4908611;29;20179;-94
2021/12/28 14:48:18;;;;;;;10.20;5.00;;;5.00;99.90;;;;;;4906606;29;20214;-94
2021/12/28 14:50:50;;;;;;;8.83;4.70;;;5.00;99.90;;;;;;4906287;29;20194;-94
2021/12/28 14:53:20;;;;;;;9.80;5.10;;;5.00;99.90;;;;;;4907105;29;20191;-95
2021/12/28 14:55:49;;;;;;;8.73;5.20;;;5.00;99.90;;;;;;4907171;29;20772;-93
2021/12/28 14:58:27;;;;;;;13.07;5.63;;;5.00;99.90;;;;;;4923674;29;20211;-95
2021/12/28 15:00:55;;;;;;;8.27;5.13;;;4.90;99.90;;;;;;4908216;29;20265;-96
2021/12/28 15:03:43;;;;;;;9.43;5.37;;;4.90;99.90;;;;;;4907468;29;20216;-94
2021/12/28 15:06:11;;;;;;;9.53;5.17;;;4.80;99.90;;;;;;4907964;29;20213;-96
2021/12/28 15:08:41;;;;;;;11.63;5.17;;;4.80;99.90;;;;;;4908485;29;20206;-95
2021/12/28 15:11:08;;;;;;;12.80;5.73;;;4.80;99.90;;;;;;4908785;29;20206;-96
2021/12/28 15:13:43;;;;;;;9.20;5.17;;;4.70;99.90;;;;;;4907867;29;20198;-96
2021/12/28 15:16:10;;;;;;;10.37;5.03;;;4.70;99.90;;;;;;4906616;29;20673;-93
2021/12/28 15:18:42;;;;;;;10.20;5.43;;;4.70;99.90;;;;;;4908695;29;20248;-95
2021/12/28 15:21:08;;;;;;;7.23;5.00;;;4.70;99.90;;;;;;4908497;29;20206;-94
2021/12/28 15:23:36;;;;;;;10.53;4.70;;;4.60;99.90;;;;;;4907644;29;20230;-94
2021/12/28 15:26:02;;;;;;;14.63;4.93;;;4.60;99.90;;;;;;4908086;29;20282;-94
2021/12/28 15:28:28;;;;;;;12.90;5.93;;;4.60;99.90;;;;;;4907577;29;20187;-95
2021/12/28 15:30:55;;;;;;;10.23;4.80;;;4.60;99.90;;;;;;4908144;29;20258;-95
2021/12/28 15:33:25;;;;;;;9.03;4.87;;;4.60;99.90;;;;;;4907843;29;20213;-96
2021/12/28 15:35:51;;;;;;;8.40;4.63;;;4.70;99.90;;;;;;4907432;29;20302;-95
2021/12/28 15:38:21;;;;;;;11.73;5.23;;;4.70;99.90;;;;;;4907921;29;20249;-95
2021/12/28 15:40:52;;;;;;;9.17;5.20;;;4.70;99.90;;;;;;4907383;29;20641;-95
2021/12/28 15:43:29;;;;;;;10.60;4.87;;;4.80;99.90;;;;;;4907373;29;20210;-95
2021/12/28 15:45:56;;;;;;;9.07;4.47;;;4.80;99.90;;;;;;4908141;29;20182;-96
2021/12/28 15:48:22;;;;;;;11.90;4.60;;;4.70;99.90;;;;;;4908498;29;20318;-95
2021/12/28 15:50:54;;;;;;;11.93;5.60;;;4.70;99.90;;;;;;4908216;29;20183;-95
2021/12/28 15:53:22;;;;;;;10.53;5.30;;;4.70;99.90;;;;;;4907565;29;20269;-94
2021/12/28 15:56:04;;;;;;;11.23;5.00;;;4.70;99.90;;;;;;4909530;29;20533;-95
2021/12/28 15:58:35;;;;;;;11.33;5.83;;;4.60;99.90;;;;;;4908676;29;20186;-94
2021/12/28 16:01:02;;;;;;;11.43;5.70;;;4.60;99.90;;;;;;4909695;29;20198;-96
2021/12/28 16:03:33;;;;;;;10.40;6.00;;;4.60;99.90;;;;;;4912897;29;20214;-96
2021/12/28 16:06:15;;;;;;;16.20;5.73;;;4.60;99.90;;;;;;4907209;29;20233;-96
2021/12/28 16:08:56;;;;;;;14.67;5.70;;;4.60;99.90;;;;;;4907914;29;20183;-96
2021/12/28 16:11:23;;;;;;;9.13;5.87;;;4.50;99.90;;;;;;4908147;29;20215;-94
2021/12/28 16:13:59;;;;;;;8.53;5.87;;;4.50;99.90;;;;;;4908309;29;20252;-95
2021/12/28 16:16:26;;;;;;;12.40;5.90;;;4.50;99.90;;;;;;4908353;29;20217;-95
2021/12/28 16:19:01;;;;;;;16.20;6.50;;;4.50;99.90;;;;;;4908337;29;20194;-95
2021/12/28 16:21:29;;;;;;;16.53;6.27;;;4.50;99.90;;;;;;4907047;29;20190;-95
2021/12/28 16:23:55;;;;;;;10.77;5.53;;;4.50;99.90;;;;;;4908784;29;20301;-96
2021/12/28 16:26:22;;;;;;;14.67;6.23;;;4.50;99.90;;;;;;4909588;29;20207;-96
2021/12/28 16:28:54;;;;;;;14.67;6.00;;;4.50;99.90;;;;;;4910949;29;20198;-95
2021/12/28 16:31:27;;;;;;;10.63;5.67;;;4.40;99.90;;;;;;4911238;29;20206;-94
2021/12/28 16:33:56;;;;;;;12.83;6.07;;;4.40;99.90;;;;;;4908475;29;20225;-95
2021/12/28 16:36:29;;;;;;;11.63;6.03;;;4.40;99.90;;;;;;4907711;29;20256;-95
2021/12/28 16:39:16;;;;;;;11.87;5.70;;;4.40;99.90;;;;;;4906017;29;20278;-96
2021/12/28 16:41:42;;;;;;;10.73;6.03;;;4.30;99.90;;;;;;4911773;29;20190;-95
2021/12/28 16:44:09;;;;;;;12.50;5.50;;;4.30;99.90;;;;;;4914010;29;20214;-96
2021/12/28 16:46:37;;;;;;;15.50;6.40;;;4.30;99.90;;;;;;4911420;29;20211;-96
2021/12/28 16:49:07;;;;;;;10.00;5.97;;;4.30;99.90;;;;;;4912400;29;20187;-96
2021/12/28 16:51:34;;;;;;;10.80;6.23;;;4.30;99.90;;;;;;4915006;29;20330;-95
2021/12/28 16:54:07;;;;;;;9.57;5.77;;;4.30;99.90;;;;;;4911858;29;20272;-95
2021/12/28 16:56:35;;;;;;;10.87;6.10;;;4.30;99.90;;;;;;4910510;29;20218;-95
2021/12/28 16:59:03;;;;;;;14.47;6.50;;;4.20;99.90;;;;;;4910697;29;20218;-96
2021/12/28 17:01:30;;;;;;;18.07;7.40;;;4.20;99.90;;;;;;4909544;29;20183;-96
2021/12/28 17:04:02;;;;;;;15.10;8.77;;;4.20;99.90;;;;;;4909263;29;20415;-95
2021/12/28 17:06:28;;;;;;;25.07;14.00;;;4.20;99.90;;;;;;4906376;29;20217;-96
2021/12/28 17:08:59;;;;;;;29.70;16.27;;;4.20;99.90;;;;;;4907640;29;20202;-96
2021/12/28 17:11:29;;;;;;;24.33;14.80;;;4.20;99.90;;;;;;4908808;29;20201;-96
2021/12/28 17:13:56;;;;;;;15.27;7.40;;;4.20;99.90;;;;;;4908874;29;20193;-96
2021/12/28 17:16:23;;;;;;;13.07;6.70;;;4.20;99.90;;;;;;4909609;29;20230;-96
2021/12/28 17:19:01;;;;;;;18.70;6.97;;;4.20;99.90;;;;;;4908644;29;20660;-96
2021/12/28 17:21:27;;;;;;;14.77;6.30;;;4.20;99.90;;;;;;4907631;29;20246;-96
2021/12/28 17:23:53;;;;;;;12.80;6.87;;;4.20;99.90;;;;;;4909274;29;20242;-96
2021/12/28 17:26:23;;;;;;;13.17;7.33;;;4.20;99.90;;;;;;4908920;29;20222;-96
2021/12/28 17:28:50;;;;;;;14.33;7.50;;;4.10;99.90;;;;;;4908060;29;20182;-96
2021/12/28 17:34:17;;;;;;;13.90;6.97;;;4.10;99.90;;;;;;4924032;29;20218;-96
2021/12/28 17:36:43;;;;;;;17.90;7.63;;;4.10;99.90;;;;;;4905413;29;20668;-95
2021/12/28 17:39:22;;;;;;;11.87;6.97;;;4.10;99.90;;;;;;4905778;29;20219;-96
2021/12/28 17:41:57;;;;;;;21.53;8.30;;;4.10;99.90;;;;;;4905977;29;20178;-96
2021/12/28 17:44:23;;;;;;;15.37;7.60;;;4.10;99.90;;;;;;4906875;29;20206;-95
2021/12/28 17:47:10;;;;;;;14.57;7.83;;;4.20;99.90;;;;;;4905659;29;20203;-96
2021/12/28 17:49:39;;;;;;;14.50;7.67;;;4.20;99.90;;;;;;4907266;29;20186;-95
2021/12/28 17:52:06;;;;;;;14.67;7.63;;;4.20;99.90;;;;;;4907928;29;20641;-96
2021/12/28 17:54:36;;;;;;;12.80;7.57;;;4.20;99.90;;;;;;4913282;29;20175;-96
2021/12/28 17:57:04;;;;;;;13.00;7.20;;;4.20;99.90;;;;;;4912784;29;20278;-96
2021/12/28 17:59:56;;;;;;;14.40;7.53;;;4.20;99.90;;;;;;4929496;29;20194;-95
2021/12/28 18:02:28;;;;;;;12.73;7.30;;;4.20;99.90;;;;;;4929303;29;20222;-96
2021/12/28 18:05:02;;;;;;;12.37;7.60;;;4.10;99.90;;;;;;4911716;29;20183;-95
2021/12/28 18:07:29;;;;;;;11.00;7.50;;;4.10;99.90;;;;;;4908138;29;20210;-95
2021/12/28 18:10:04;;;;;;;10.77;7.17;;;4.10;99.90;;;;;;4911923;29;20187;-96
2021/12/28 18:12:33;;;;;;;10.27;6.77;;;4.10;99.90;;;;;;4914658;29;20633;-96
2021/12/28 18:15:00;;;;;;;11.23;7.33;;;4.10;99.90;;;;;;4910397;29;20711;-96
2021/12/28 18:17:32;;;;;;;11.97;6.80;;;4.10;99.90;;;;;;4910899;29;20215;-96
2021/12/28 18:20:07;;;;;;;13.73;7.73;;;4.10;99.90;;;;;;4909689;29;20556;-96
2021/12/28 18:22:40;;;;;;;13.03;7.57;;;4.10;99.90;;;;;;4929425;29;20218;-96
2021/12/28 18:25:19;;;;;;;13.67;7.40;;;4.10;99.90;;;;;;4911632;29;20190;-96
2021/12/28 18:27:53;;;;;;;13.13;7.40;;;4.10;99.90;;;;;;4910757;29;20258;-96
2021/12/28 18:30:23;;;;;;;12.23;7.33;;;4.10;99.90;;;;;;4910556;29;20183;-96
2021/12/28 18:33:20;;;;;;;11.67;6.90;;;4.00;99.90;;;;;;4911165;29;20637;-96
2021/12/28 18:38:24;;;;;;;12.13;8.00;;;4.00;99.90;;;;;;4922406;29;20245;-96
2021/12/28 18:40:54;;;;;;;14.63;7.73;;;4.10;99.90;;;;;;4905811;29;20195;-96
2021/12/28 18:43:22;;;;;;;11.47;7.43;;;4.20;99.90;;;;;;4905600;29;20611;-96
2021/12/28 18:45:52;;;;;;;13.83;8.17;;;4.10;99.90;;;;;;4905153;29;20278;-96
2021/12/28 18:48:36;;;;;;;15.87;7.90;;;4.10;99.90;;;;;;4907291;29;20211;-96
2021/12/28 18:51:03;;;;;;;13.17;7.90;;;4.20;99.90;;;;;;4933730;23;20179;-96
2021/12/28 18:53:29;;;;;;;17.20;8.40;;;4.20;99.90;;;;;;4966059;28;20707;-96
2021/12/28 18:56:02;;;;;;;14.03;8.13;;;4.20;99.90;;;;;;4972031;28;20287;-96
2021/12/28 18:58:35;;;;;;;13.17;7.70;;;4.20;99.90;;;;;;4984938;28;20189;-96
2021/12/28 19:01:07;;;;;;;14.40;8.43;;;4.20;99.90;;;;;;4965761;28;20196;-96
2021/12/28 19:03:35;;;;;;;16.33;8.43;;;4.20;99.90;;;;;;4974377;28;20240;-96
2021/12/28 19:06:01;;;;;;;14.60;8.43;;;4.20;99.90;;;;;;4958380;29;20189;-94
2021/12/28 19:08:28;;;;;;;13.63;8.20;;;4.30;99.90;;;;;;4956604;28;20192;-95
2021/12/28 19:10:54;;;;;;;10.77;7.90;;;4.30;99.90;;;;;;4960458;28;20200;-95
2021/12/28 19:13:21;;;;;;;19.13;8.60;;;4.30;99.90;;;;;;4959390;28;20235;-94
2021/12/28 19:15:48;;;;;;;14.80;8.40;;;4.30;99.90;;;;;;4949698;28;20283;-94
2021/12/28 19:18:15;;;;;;;16.43;8.90;;;4.30;99.90;;;;;;4959632;28;20216;-94
2021/12/28 19:20:46;;;;;;;13.97;8.10;;;4.30;99.90;;;;;;4959891;28;20196;-94
2021/12/28 19:23:12;;;;;;;13.27;8.43;;;4.30;99.90;;;;;;4960179;28;20224;-94
2021/12/28 19:25:39;;;;;;;14.00;7.83;;;4.30;99.90;;;;;;4959861;28;20284;-94
2021/12/28 19:28:07;;;;;;;12.27;8.00;;;4.30;99.90;;;;;;4959713;28;20189;-95
2021/12/28 19:30:33;;;;;;;16.87;8.17;;;4.30;99.90;;;;;;4959804;28;20290;-93
2021/12/28 19:32:59;;;;;;;19.47;8.30;;;4.30;99.90;;;;;;4959392;28;20283;-96
2021/12/28 19:35:26;;;;;;;17.07;9.10;;;4.30;99.90;;;;;;4959659;28;20678;-95
2021/12/28 19:37:53;;;;;;;10.90;8.30;;;4.30;99.90;;;;;;4959220;28;20203;-95
2021/12/28 19:40:22;;;;;;;11.13;8.20;;;4.30;99.90;;;;;;4959126;28;20617;-94
2021/12/28 19:42:48;;;;;;;15.00;8.63;;;4.30;99.90;;;;;;4959382;28;20220;-94
2021/12/28 19:45:15;;;;;;;12.93;8.07;;;4.30;99.90;;;;;;4960332;28;20223;-94
2021/12/28 19:47:40;;;;;;;13.83;7.27;;;4.20;99.90;;;;;;4960017;28;20211;-95
2021/12/28 19:50:07;;;;;;;12.17;7.03;;;4.20;99.90;;;;;;4959942;28;20192;-95
2021/12/28 19:52:33;;;;;;;13.90;7.80;;;4.30;99.90;;;;;;4960345;28;20235;-94
2021/12/28 19:54:59;;;;;;;14.83;8.10;;;4.30;99.90;;;;;;4960437;28;20534;-94
2021/12/28 19:57:26;;;;;;;12.57;7.70;;;4.30;99.90;;;;;;4959264;28;20507;-94
2021/12/28 19:59:52;;;;;;;10.03;7.07;;;4.30;99.90;;;;;;4960358;28;20235;-96
2021/12/28 20:02:18;;;;;;;10.93;6.73;;;4.40;99.90;;;;;;4960267;28;20212;-94
2021/12/28 20:04:46;;;;;;;15.00;7.97;;;4.30;99.90;;;;;;4959651;28;20196;-95
2021/12/28 20:07:13;;;;;;;14.60;8.17;;;4.30;99.90;;;;;;4959278;28;20191;-94
2021/12/28 20:09:39;;;;;;;11.07;7.47;;;4.30;99.90;;;;;;4961034;28;20203;-95
2021/12/28 20:12:06;;;;;;;16.43;8.90;;;4.30;99.90;;;;;;4959695;28;20267;-96
2021/12/28 20:14:34;;;;;;;14.37;8.00;;;4.20;99.90;;;;;;4959332;28;20193;-96
2021/12/28 20:17:03;;;;;;;11.60;7.47;;;4.20;99.90;;;;;;4943869;28;20197;-96
2021/12/28 20:19:29;;;;;;;13.57;7.97;;;4.20;99.90;;;;;;4959145;28;20602;-96
2021/12/28 20:21:55;;;;;;;14.87;9.57;;;4.10;99.90;;;;;;4958802;28;20193;-96
2021/12/28 20:24:21;;;;;;;12.57;8.57;;;4.10;99.90;;;;;;4959290;28;20694;-96
2021/12/28 20:26:48;;;;;;;17.70;8.67;;;4.10;99.90;;;;;;4959876;28;20616;-96
2021/12/28 20:29:17;;;;;;;12.33;8.07;;;4.10;99.90;;;;;;4959544;28;20280;-96
2021/12/28 20:31:44;;;;;;;10.60;6.90;;;4.00;99.90;;;;;;4959040;28;20191;-96
2021/12/28 20:34:11;;;;;;;14.57;7.70;;;4.00;99.90;;;;;;4959161;28;20228;-96
2021/12/28 20:36:38;;;;;;;14.17;6.87;;;4.10;99.90;;;;;;4959208;28;20254;-96
2021/12/28 20:39:06;;;;;;;11.17;6.17;;;4.00;99.90;;;;;;4948087;28;20287;-96
2021/12/28 20:41:34;;;;;;;11.83;6.40;;;4.00;99.90;;;;;;4960077;28;20266;-96
2021/12/28 20:44:00;;;;;;;10.40;6.30;;;4.00;99.90;;;;;;4959419;28;20315;-96
2021/12/28 20:46:28;;;;;;;10.30;5.90;;;4.00;99.90;;;;;;4964402;29;20193;-96
2021/12/28 20:48:54;;;;;;;12.50;5.97;;;4.00;99.90;;;;;;4965494;28;20217;-96
2021/12/28 20:51:20;;;;;;;15.73;6.10;;;4.00;99.90;;;;;;4959256;28;20256;-96